Fortaleza, Brasil

02:55 AM BRT em 20 de Setembro de 2014 (GMT -0300)
Pinto Martins International | Change Station
CLOSE
Current Station
Aeroporto
Location: Fortaleza - Pinto Martins,
Altitude: 82 ft
Estações Meteorológicas Próximas

Elev 82 ft 3.78 °S, 38.53 °W | Updated 55 minutes ago

Scattered Clouds
Nuvens Dispersas
77 °F
Aparente 77 °F
N
16
Vento Variável Vento de Este

Hoje
Máxima -- | Mínima -- °F
--% Possibilidade de Precip.
Ontem
Máxima -- | Mínima -- °F
Precip. -- pol
5:24 AM 5:30 PM
Quarto minguante, 14% visible
Pressão 29.92 pol
Visibilidade 6.2 milhas
Nuvens Nuvens Dispersas 1800 ft
Ponto de Orvalho 68 °F
Humidade 74%
Chuva 0.00 pol
Altura de Neve Não disponível
UV 0 em vez de 12
Pólen Não disponível
Qualidade do Ar Não disponível
Flu Activity Não disponível
METAR SBFZ 200500Z 10014KT 9999 SCT018 25/20 Q1013

More Conditions Fewer Conditions

Pressão 29.92 pol
Visibilidade 6.2 milhas
Nuvens Nuvens Dispersas 1800 ft
Ponto de Orvalho 68 °F
Humidade 74%
Chuva 0.00 pol
Altura de Neve Não disponível
UV 0 em vez de 12
Pólen Não disponível
Qualidade do Ar Não disponível
Flu Activity Não disponível
METAR SBFZ 200500Z 10014KT 9999 SCT018 25/20 Q1013

More Conditions Fewer Conditions

10-Day Weather Forecast

Almanac

Astronomia

Sep. 20, 2014 Nascer Pôr
Hora atual 05:24 BRT 17:30 BRT
Crepúsculo civil 05:03 BRT 17:51 BRT
Crepúsculo náutico 04:39 BRT 18:15 BRT
Crepúsculo astronómico 04:15 BRT 18:39 BRT
Lua 02:38 BRT 14:53 BRT
Comprimento da luz visível 12h 47m
Duração do Dia
12h 05m
Tomorrow will be 0m 13s longer.
Quarto minguante, 14% of the Moon is Illuminated
Hoje
Quarto minguante
Set 24
Nova
Out 1
Quarto crescente
Out 8
Lua cheia
Out 15
Quarto minguante

Extremos de ontem

Altitude na localidade Altura mais baixa na localidade

Community

WunderPhotos

Upload Photos

1,754,777 fotografias inseridas!

WunderBlogs® & News

Nearby

Actividade Sísmisca

Cidade Distância Mag. Hora & Data
Não há notícias de atividade sísmica recente perto de si.
Mínima magnitude apresentada é 2.5.

Temperaturas das Águas Costeiras

Local Temperatura
Não há estações a reportar dados

Estações Meteorológicas Próximas